sensor_id;sensor_type;location;lat;lon;timestamp;temperature;humidity
67641;SHT31;54434;50.096;20.082;2023-10-09T00:01:10;3.64;77.79
67641;SHT31;54434;50.096;20.082;2023-10-09T00:03:52;3.63;77.97
67641;SHT31;54434;50.096;20.082;2023-10-09T00:06:33;3.61;77.93
67641;SHT31;54434;50.096;20.082;2023-10-09T00:09:10;3.57;77.99
67641;SHT31;54434;50.096;20.082;2023-10-09T00:11:51;3.53;77.99
67641;SHT31;54434;50.096;20.082;2023-10-09T00:14:30;3.50;78.10
67641;SHT31;54434;50.096;20.082;2023-10-09T00:17:10;3.47;78.02
67641;SHT31;54434;50.096;20.082;2023-10-09T00:19:53;3.44;77.91
67641;SHT31;54434;50.096;20.082;2023-10-09T00:22:40;3.40;77.89
67641;SHT31;54434;50.096;20.082;2023-10-09T00:25:18;3.39;78.02
67641;SHT31;54434;50.096;20.082;2023-10-09T00:28:00;3.36;77.95
67641;SHT31;54434;50.096;20.082;2023-10-09T00:30:50;3.31;78.12
67641;SHT31;54434;50.096;20.082;2023-10-09T00:33:27;3.29;78.36
67641;SHT31;54434;50.096;20.082;2023-10-09T00:36:06;3.26;78.54
67641;SHT31;54434;50.096;20.082;2023-10-09T00:38:42;3.22;78.78
67641;SHT31;54434;50.096;20.082;2023-10-09T00:41:22;3.19;78.90
67641;SHT31;54434;50.096;20.082;2023-10-09T00:44:00;3.16;79.06
67641;SHT31;54434;50.096;20.082;2023-10-09T00:46:39;3.15;79.06
67641;SHT31;54434;50.096;20.082;2023-10-09T00:49:19;3.11;79.08
67641;SHT31;54434;50.096;20.082;2023-10-09T00:51:55;3.09;79.12
67641;SHT31;54434;50.096;20.082;2023-10-09T00:54:32;3.08;79.19
67641;SHT31;54434;50.096;20.082;2023-10-09T00:57:13;3.05;79.21
67641;SHT31;54434;50.096;20.082;2023-10-09T00:59:50;3.02;79.32
67641;SHT31;54434;50.096;20.082;2023-10-09T01:02:32;3.02;79.22
67641;SHT31;54434;50.096;20.082;2023-10-09T01:05:14;3.03;79.20
67641;SHT31;54434;50.096;20.082;2023-10-09T01:07:51;3.01;79.13
67641;SHT31;54434;50.096;20.082;2023-10-09T01:10:30;3.02;79.63
67641;SHT31;54434;50.096;20.082;2023-10-09T01:13:28;2.99;79.74
67641;SHT31;54434;50.096;20.082;2023-10-09T01:16:11;2.96;79.65
67641;SHT31;54434;50.096;20.082;2023-10-09T01:18:51;2.94;79.56
67641;SHT31;54434;50.096;20.082;2023-10-09T01:21:29;2.90;79.50
67641;SHT31;54434;50.096;20.082;2023-10-09T01:24:06;2.88;79.52
67641;SHT31;54434;50.096;20.082;2023-10-09T01:26:44;2.84;79.60
67641;SHT31;54434;50.096;20.082;2023-10-09T01:29:22;2.81;79.60
67641;SHT31;54434;50.096;20.082;2023-10-09T01:32:01;2.79;79.51
67641;SHT31;54434;50.096;20.082;2023-10-09T01:34:38;2.75;79.47
67641;SHT31;54434;50.096;20.082;2023-10-09T01:37:17;2.71;79.53
67641;SHT31;54434;50.096;20.082;2023-10-09T01:39:57;2.69;79.62
67641;SHT31;54434;50.096;20.082;2023-10-09T01:42:55;2.66;79.74
67641;SHT31;54434;50.096;20.082;2023-10-09T01:45:32;2.64;79.82
67641;SHT31;54434;50.096;20.082;2023-10-09T01:48:15;2.62;79.89
67641;SHT31;54434;50.096;20.082;2023-10-09T01:50:56;2.59;79.92
67641;SHT31;54434;50.096;20.082;2023-10-09T01:53:37;2.59;80.13
67641;SHT31;54434;50.096;20.082;2023-10-09T01:56:14;2.57;80.19
67641;SHT31;54434;50.096;20.082;2023-10-09T01:58:51;2.55;80.20
67641;SHT31;54434;50.096;20.082;2023-10-09T02:01:34;2.53;80.22
67641;SHT31;54434;50.096;20.082;2023-10-09T02:04:14;2.51;80.35
67641;SHT31;54434;50.096;20.082;2023-10-09T02:06:52;2.51;80.34
67641;SHT31;54434;50.096;20.082;2023-10-09T02:09:29;2.49;80.45
67641;SHT31;54434;50.096;20.082;2023-10-09T02:12:07;2.52;80.51
67641;SHT31;54434;50.096;20.082;2023-10-09T02:14:45;2.52;80.50
67641;SHT31;54434;50.096;20.082;2023-10-09T02:17:21;2.56;80.58
67641;SHT31;54434;50.096;20.082;2023-10-09T02:20:01;2.58;80.82
67641;SHT31;54434;50.096;20.082;2023-10-09T02:22:49;2.60;81.04
67641;SHT31;54434;50.096;20.082;2023-10-09T02:25:26;2.63;81.15
67641;SHT31;54434;50.096;20.082;2023-10-09T02:28:14;2.66;81.17
67641;SHT31;54434;50.096;20.082;2023-10-09T02:30:50;2.70;81.20
67641;SHT31;54434;50.096;20.082;2023-10-09T02:33:32;2.74;81.36
67641;SHT31;54434;50.096;20.082;2023-10-09T02:36:11;2.80;81.60
67641;SHT31;54434;50.096;20.082;2023-10-09T02:38:48;2.85;81.68
67641;SHT31;54434;50.096;20.082;2023-10-09T02:41:28;2.89;81.70
67641;SHT31;54434;50.096;20.082;2023-10-09T02:44:06;2.91;81.72
67641;SHT31;54434;50.096;20.082;2023-10-09T02:46:43;2.95;81.84
67641;SHT31;54434;50.096;20.082;2023-10-09T02:49:20;2.98;81.87
67641;SHT31;54434;50.096;20.082;2023-10-09T02:51:57;3.02;81.90
67641;SHT31;54434;50.096;20.082;2023-10-09T02:54:39;3.07;81.82
67641;SHT31;54434;50.096;20.082;2023-10-09T02:57:18;3.10;81.79
67641;SHT31;54434;50.096;20.082;2023-10-09T02:59:56;3.13;81.80
67641;SHT31;54434;50.096;20.082;2023-10-09T03:02:32;3.18;81.88
67641;SHT31;54434;50.096;20.082;2023-10-09T03:05:12;3.24;82.02
67641;SHT31;54434;50.096;20.082;2023-10-09T03:07:50;3.28;82.13
67641;SHT31;54434;50.096;20.082;2023-10-09T03:10:27;3.32;82.14
67641;SHT31;54434;50.096;20.082;2023-10-09T03:13:06;3.37;82.14
67641;SHT31;54434;50.096;20.082;2023-10-09T03:15:43;3.42;82.19
67641;SHT31;54434;50.096;20.082;2023-10-09T03:18:23;3.47;82.25
67641;SHT31;54434;50.096;20.082;2023-10-09T03:21:00;3.52;82.21
67641;SHT31;54434;50.096;20.082;2023-10-09T03:23:38;3.56;82.28
67641;SHT31;54434;50.096;20.082;2023-10-09T03:26:15;3.60;82.25
67641;SHT31;54434;50.096;20.082;2023-10-09T03:28:53;3.66;82.20
67641;SHT31;54434;50.096;20.082;2023-10-09T03:31:32;3.72;82.11
67641;SHT31;54434;50.096;20.082;2023-10-09T03:34:09;3.78;82.19
67641;SHT31;54434;50.096;20.082;2023-10-09T03:36:47;3.83;82.22
67641;SHT31;54434;50.096;20.082;2023-10-09T03:39:35;3.87;82.25
67641;SHT31;54434;50.096;20.082;2023-10-09T03:42:13;3.92;82.27
67641;SHT31;54434;50.096;20.082;2023-10-09T03:44:52;3.97;82.25
67641;SHT31;54434;50.096;20.082;2023-10-09T03:47:29;4.04;82.19
67641;SHT31;54434;50.096;20.082;2023-10-09T03:50:07;4.11;82.10
67641;SHT31;54434;50.096;20.082;2023-10-09T03:52:56;4.16;82.04
67641;SHT31;54434;50.096;20.082;2023-10-09T03:55:32;4.24;82.06
67641;SHT31;54434;50.096;20.082;2023-10-09T03:58:11;4.30;82.18
67641;SHT31;54434;50.096;20.082;2023-10-09T04:00:50;4.34;82.24
67641;SHT31;54434;50.096;20.082;2023-10-09T04:03:27;4.40;82.18
67641;SHT31;54434;50.096;20.082;2023-10-09T04:06:04;4.45;82.09
67641;SHT31;54434;50.096;20.082;2023-10-09T04:08:43;4.50;82.03
67641;SHT31;54434;50.096;20.082;2023-10-09T04:11:20;4.56;81.94
67641;SHT31;54434;50.096;20.082;2023-10-09T04:13:57;4.59;81.81
67641;SHT31;54434;50.096;20.082;2023-10-09T04:16:42;4.64;81.65
67641;SHT31;54434;50.096;20.082;2023-10-09T04:19:24;4.68;81.58
67641;SHT31;54434;50.096;20.082;2023-10-09T04:22:01;4.71;81.43
67641;SHT31;54434;50.096;20.082;2023-10-09T04:24:39;4.76;81.25
67641;SHT31;54434;50.096;20.082;2023-10-09T04:27:16;4.80;81.10
67641;SHT31;54434;50.096;20.082;2023-10-09T04:29:58;4.84;81.01
67641;SHT31;54434;50.096;20.082;2023-10-09T04:32:39;4.89;80.83
67641;SHT31;54434;50.096;20.082;2023-10-09T04:35:17;4.92;80.77
67641;SHT31;54434;50.096;20.082;2023-10-09T04:37:56;4.95;80.54
67641;SHT31;54434;50.096;20.082;2023-10-09T04:40:37;4.99;80.47
67641;SHT31;54434;50.096;20.082;2023-10-09T04:43:23;5.02;80.56
67641;SHT31;54434;50.096;20.082;2023-10-09T04:46:01;5.05;80.54
67641;SHT31;54434;50.096;20.082;2023-10-09T04:48:44;5.11;80.53
67641;SHT31;54434;50.096;20.082;2023-10-09T04:51:24;5.13;80.70
67641;SHT31;54434;50.096;20.082;2023-10-09T04:54:08;5.15;80.89
67641;SHT31;54434;50.096;20.082;2023-10-09T04:57:05;5.16;81.10
67641;SHT31;54434;50.096;20.082;2023-10-09T04:59:50;5.16;81.15
67641;SHT31;54434;50.096;20.082;2023-10-09T05:02:30;5.16;81.11
67641;SHT31;54434;50.096;20.082;2023-10-09T05:05:10;5.15;81.12
67641;SHT31;54434;50.096;20.082;2023-10-09T05:08:09;5.16;81.04
67641;SHT31;54434;50.096;20.082;2023-10-09T05:10:51;5.18;81.00
67641;SHT31;54434;50.096;20.082;2023-10-09T05:13:50;5.20;80.94
67641;SHT31;54434;50.096;20.082;2023-10-09T05:16:43;5.24;80.91
67641;SHT31;54434;50.096;20.082;2023-10-09T05:19:26;5.28;80.82
67641;SHT31;54434;50.096;20.082;2023-10-09T05:22:26;5.31;80.98
67641;SHT31;54434;50.096;20.082;2023-10-09T05:25:09;5.32;80.99
67641;SHT31;54434;50.096;20.082;2023-10-09T05:28:08;5.37;81.03
67641;SHT31;54434;50.096;20.082;2023-10-09T05:31:02;5.40;81.06
67641;SHT31;54434;50.096;20.082;2023-10-09T05:33:44;5.43;80.99
67641;SHT31;54434;50.096;20.082;2023-10-09T05:36:25;5.48;80.91
67641;SHT31;54434;50.096;20.082;2023-10-09T05:39:07;5.52;80.90
67641;SHT31;54434;50.096;20.082;2023-10-09T05:41:54;5.56;80.81
67641;SHT31;54434;50.096;20.082;2023-10-09T05:44:40;5.61;80.73
67641;SHT31;54434;50.096;20.082;2023-10-09T05:47:49;5.67;80.39
67641;SHT31;54434;50.096;20.082;2023-10-09T05:50:28;5.72;80.10
67641;SHT31;54434;50.096;20.082;2023-10-09T05:53:09;5.75;79.84
67641;SHT31;54434;50.096;20.082;2023-10-09T05:56:10;5.78;79.54
67641;SHT31;54434;50.096;20.082;2023-10-09T05:59:07;5.85;79.50
67641;SHT31;54434;50.096;20.082;2023-10-09T06:02:01;5.89;79.33
67641;SHT31;54434;50.096;20.082;2023-10-09T06:04:55;5.95;79.21
67641;SHT31;54434;50.096;20.082;2023-10-09T06:07:36;5.99;79.01
67641;SHT31;54434;50.096;20.082;2023-10-09T06:10:34;6.07;79.27
67641;SHT31;54434;50.096;20.082;2023-10-09T06:13:13;6.12;79.53
67641;SHT31;54434;50.096;20.082;2023-10-09T06:16:09;6.18;79.00
67641;SHT31;54434;50.096;20.082;2023-10-09T06:19:14;6.24;78.82
67641;SHT31;54434;50.096;20.082;2023-10-09T06:21:59;6.30;78.87
67641;SHT31;54434;50.096;20.082;2023-10-09T06:24:53;6.32;78.30
67641;SHT31;54434;50.096;20.082;2023-10-09T06:27:40;6.33;78.63
67641;SHT31;54434;50.096;20.082;2023-10-09T06:30:31;6.32;78.62
67641;SHT31;54434;50.096;20.082;2023-10-09T06:33:16;6.35;78.89
67641;SHT31;54434;50.096;20.082;2023-10-09T06:36:01;6.39;78.63
67641;SHT31;54434;50.096;20.082;2023-10-09T06:38:49;6.45;78.49
67641;SHT31;54434;50.096;20.082;2023-10-09T06:41:46;6.49;78.05
67641;SHT31;54434;50.096;20.082;2023-10-09T06:44:40;6.55;78.21
67641;SHT31;54434;50.096;20.082;2023-10-09T06:47:25;6.62;78.38
67641;SHT31;54434;50.096;20.082;2023-10-09T06:50:10;6.68;78.37
67641;SHT31;54434;50.096;20.082;2023-10-09T06:53:19;6.73;78.11
67641;SHT31;54434;50.096;20.082;2023-10-09T06:56:18;6.78;77.71
67641;SHT31;54434;50.096;20.082;2023-10-09T06:58:58;6.82;77.25
67641;SHT31;54434;50.096;20.082;2023-10-09T07:01:46;6.85;76.87
67641;SHT31;54434;50.096;20.082;2023-10-09T07:04:41;6.86;76.45
67641;SHT31;54434;50.096;20.082;2023-10-09T07:07:20;6.89;76.48
67641;SHT31;54434;50.096;20.082;2023-10-09T07:09:57;6.93;76.41
67641;SHT31;54434;50.096;20.082;2023-10-09T07:12:51;6.97;76.34
67641;SHT31;54434;50.096;20.082;2023-10-09T07:15:29;7.01;76.06
67641;SHT31;54434;50.096;20.082;2023-10-09T07:18:23;7.04;75.60
67641;SHT31;54434;50.096;20.082;2023-10-09T07:21:17;7.06;75.41
67641;SHT31;54434;50.096;20.082;2023-10-09T07:23:59;7.08;75.18
67641;SHT31;54434;50.096;20.082;2023-10-09T07:26:46;7.11;74.95
67641;SHT31;54434;50.096;20.082;2023-10-09T07:29:25;7.14;74.80
67641;SHT31;54434;50.096;20.082;2023-10-09T07:32:19;7.16;74.69
67641;SHT31;54434;50.096;20.082;2023-10-09T07:34:59;7.19;74.72
67641;SHT31;54434;50.096;20.082;2023-10-09T07:37:41;7.21;74.65
67641;SHT31;54434;50.096;20.082;2023-10-09T07:40:24;7.18;74.06
67641;SHT31;54434;50.096;20.082;2023-10-09T07:43:03;7.18;74.16
67641;SHT31;54434;50.096;20.082;2023-10-09T07:45:40;7.21;74.23
67641;SHT31;54434;50.096;20.082;2023-10-09T07:48:34;7.25;73.91
67641;SHT31;54434;50.096;20.082;2023-10-09T07:51:24;7.30;74.09
67641;SHT31;54434;50.096;20.082;2023-10-09T07:54:04;7.32;73.96
67641;SHT31;54434;50.096;20.082;2023-10-09T07:56:42;7.35;74.20
67641;SHT31;54434;50.096;20.082;2023-10-09T07:59:18;7.36;74.52
67641;SHT31;54434;50.096;20.082;2023-10-09T08:01:55;7.41;74.80
67641;SHT31;54434;50.096;20.082;2023-10-09T08:04:34;7.41;75.02
67641;SHT31;54434;50.096;20.082;2023-10-09T08:07:12;7.41;75.24
67641;SHT31;54434;50.096;20.082;2023-10-09T08:10:17;7.36;75.41
67641;SHT31;54434;50.096;20.082;2023-10-09T08:13:11;7.37;75.96
67641;SHT31;54434;50.096;20.082;2023-10-09T08:16:08;7.38;76.39
67641;SHT31;54434;50.096;20.082;2023-10-09T08:18:52;7.40;76.89
67641;SHT31;54434;50.096;20.082;2023-10-09T08:21:29;7.41;77.15
67641;SHT31;54434;50.096;20.082;2023-10-09T08:24:15;7.43;77.15
67641;SHT31;54434;50.096;20.082;2023-10-09T08:27:06;7.41;77.20
67641;SHT31;54434;50.096;20.082;2023-10-09T08:30:19;7.40;77.47
67641;SHT31;54434;50.096;20.082;2023-10-09T08:33:13;7.44;77.84
67641;SHT31;54434;50.096;20.082;2023-10-09T08:36:19;7.55;78.34
67641;SHT31;54434;50.096;20.082;2023-10-09T08:39:04;7.67;78.53
67641;SHT31;54434;50.096;20.082;2023-10-09T08:41:49;7.79;78.25
67641;SHT31;54434;50.096;20.082;2023-10-09T08:44:30;7.91;78.26
67641;SHT31;54434;50.096;20.082;2023-10-09T08:47:07;8.07;78.41
67641;SHT31;54434;50.096;20.082;2023-10-09T08:49:44;8.24;78.26
67641;SHT31;54434;50.096;20.082;2023-10-09T08:52:23;8.46;78.18
67641;SHT31;54434;50.096;20.082;2023-10-09T08:55:00;8.68;78.07
67641;SHT31;54434;50.096;20.082;2023-10-09T08:57:40;8.90;77.67
67641;SHT31;54434;50.096;20.082;2023-10-09T09:00:21;9.07;76.36
67641;SHT31;54434;50.096;20.082;2023-10-09T09:02:57;9.20;75.97
67641;SHT31;54434;50.096;20.082;2023-10-09T09:05:36;9.31;75.35
67641;SHT31;54434;50.096;20.082;2023-10-09T09:08:25;9.39;75.42
67641;SHT31;54434;50.096;20.082;2023-10-09T09:11:04;9.56;75.15
67641;SHT31;54434;50.096;20.082;2023-10-09T09:13:47;9.69;74.33
67641;SHT31;54434;50.096;20.082;2023-10-09T09:16:44;9.77;74.09
67641;SHT31;54434;50.096;20.082;2023-10-09T09:19:30;9.86;74.08
67641;SHT31;54434;50.096;20.082;2023-10-09T09:22:09;9.91;73.59
67641;SHT31;54434;50.096;20.082;2023-10-09T09:24:58;9.96;73.60
67641;SHT31;54434;50.096;20.082;2023-10-09T09:27:47;10.00;73.03
67641;SHT31;54434;50.096;20.082;2023-10-09T09:30:28;10.00;72.73
67641;SHT31;54434;50.096;20.082;2023-10-09T09:33:19;10.06;72.74
67641;SHT31;54434;50.096;20.082;2023-10-09T09:36:10;10.07;72.06
67641;SHT31;54434;50.096;20.082;2023-10-09T09:38:46;10.05;71.43
67641;SHT31;54434;50.096;20.082;2023-10-09T09:41:24;9.97;70.71
67641;SHT31;54434;50.096;20.082;2023-10-09T09:44:05;9.93;70.87
67641;SHT31;54434;50.096;20.082;2023-10-09T09:46:46;9.94;71.35
67641;SHT31;54434;50.096;20.082;2023-10-09T09:49:25;9.93;70.56
67641;SHT31;54434;50.096;20.082;2023-10-09T09:52:05;9.91;70.33
67641;SHT31;54434;50.096;20.082;2023-10-09T09:54:43;9.95;70.56
67641;SHT31;54434;50.096;20.082;2023-10-09T09:57:23;10.00;70.22
67641;SHT31;54434;50.096;20.082;2023-10-09T10:00:00;10.02;70.36
67641;SHT31;54434;50.096;20.082;2023-10-09T10:03:03;10.03;69.99
67641;SHT31;54434;50.096;20.082;2023-10-09T10:05:53;10.02;69.95
67641;SHT31;54434;50.096;20.082;2023-10-09T10:08:37;9.98;69.43
67641;SHT31;54434;50.096;20.082;2023-10-09T10:11:42;9.90;69.20
67641;SHT31;54434;50.096;20.082;2023-10-09T10:14:51;9.73;69.19
67641;SHT31;54434;50.096;20.082;2023-10-09T10:17:31;9.65;69.39
67641;SHT31;54434;50.096;20.082;2023-10-09T10:21:15;9.57;69.40
67641;SHT31;54434;50.096;20.082;2023-10-09T10:24:06;9.53;69.90
67641;SHT31;54434;50.096;20.082;2023-10-09T10:27:29;9.49;70.30
67641;SHT31;54434;50.096;20.082;2023-10-09T10:30:32;9.42;69.89
67641;SHT31;54434;50.096;20.082;2023-10-09T10:33:15;9.40;70.50
67641;SHT31;54434;50.096;20.082;2023-10-09T10:35:54;9.41;70.22
67641;SHT31;54434;50.096;20.082;2023-10-09T10:38:37;9.36;70.11
67641;SHT31;54434;50.096;20.082;2023-10-09T10:41:21;9.22;70.26
67641;SHT31;54434;50.096;20.082;2023-10-09T10:43:58;9.08;70.15
67641;SHT31;54434;50.096;20.082;2023-10-09T10:46:51;8.97;70.96
67641;SHT31;54434;50.096;20.082;2023-10-09T10:49:28;8.81;71.48
67641;SHT31;54434;50.096;20.082;2023-10-09T10:52:09;8.72;72.02
67641;SHT31;54434;50.096;20.082;2023-10-09T10:55:12;8.59;72.57
67641;SHT31;54434;50.096;20.082;2023-10-09T10:58:18;8.51;73.23
67641;SHT31;54434;50.096;20.082;2023-10-09T11:01:06;8.44;73.83
67641;SHT31;54434;50.096;20.082;2023-10-09T11:03:47;8.42;74.38
67641;SHT31;54434;50.096;20.082;2023-10-09T11:06:31;8.39;74.60
67641;SHT31;54434;50.096;20.082;2023-10-09T11:09:13;8.35;75.25
67641;SHT31;54434;50.096;20.082;2023-10-09T11:11:54;8.30;75.35
67641;SHT31;54434;50.096;20.082;2023-10-09T11:14:47;8.31;75.57
67641;SHT31;54434;50.096;20.082;2023-10-09T11:17:39;8.26;75.77
67641;SHT31;54434;50.096;20.082;2023-10-09T11:20:17;8.22;76.15
67641;SHT31;54434;50.096;20.082;2023-10-09T11:22:56;8.22;76.23
67641;SHT31;54434;50.096;20.082;2023-10-09T11:25:47;8.23;76.25
67641;SHT31;54434;50.096;20.082;2023-10-09T11:28:24;8.23;76.33
67641;SHT31;54434;50.096;20.082;2023-10-09T11:31:14;8.21;76.32
67641;SHT31;54434;50.096;20.082;2023-10-09T11:33:52;8.13;76.13
67641;SHT31;54434;50.096;20.082;2023-10-09T11:36:35;8.07;76.52
67641;SHT31;54434;50.096;20.082;2023-10-09T11:39:27;8.02;76.77
67641;SHT31;54434;50.096;20.082;2023-10-09T11:42:07;8.01;76.79
67641;SHT31;54434;50.096;20.082;2023-10-09T11:45:19;8.02;76.61
67641;SHT31;54434;50.096;20.082;2023-10-09T11:47:57;7.99;76.90
67641;SHT31;54434;50.096;20.082;2023-10-09T11:50:57;7.96;76.93
67641;SHT31;54434;50.096;20.082;2023-10-09T11:53:47;7.92;77.16
67641;SHT31;54434;50.096;20.082;2023-10-09T11:56:26;7.91;77.54
67641;SHT31;54434;50.096;20.082;2023-10-09T11:59:04;7.92;77.60
67641;SHT31;54434;50.096;20.082;2023-10-09T12:01:40;7.96;77.89
67641;SHT31;54434;50.096;20.082;2023-10-09T12:04:25;8.00;78.06
67641;SHT31;54434;50.096;20.082;2023-10-09T12:07:03;8.04;78.20
67641;SHT31;54434;50.096;20.082;2023-10-09T12:09:40;8.04;77.79
67641;SHT31;54434;50.096;20.082;2023-10-09T12:12:17;8.07;77.99
67641;SHT31;54434;50.096;20.082;2023-10-09T12:14:58;8.08;77.84
67641;SHT31;54434;50.096;20.082;2023-10-09T12:17:37;8.08;77.83
67641;SHT31;54434;50.096;20.082;2023-10-09T12:20:17;8.11;77.98
67641;SHT31;54434;50.096;20.082;2023-10-09T12:23:04;8.11;77.88
67641;SHT31;54434;50.096;20.082;2023-10-09T12:25:47;8.07;77.59
67641;SHT31;54434;50.096;20.082;2023-10-09T12:28:28;8.06;77.91
67641;SHT31;54434;50.096;20.082;2023-10-09T12:31:06;8.06;78.23
67641;SHT31;54434;50.096;20.082;2023-10-09T12:33:43;8.07;78.11
67641;SHT31;54434;50.096;20.082;2023-10-09T12:36:22;8.06;78.06
67641;SHT31;54434;50.096;20.082;2023-10-09T12:38:58;8.07;78.46
67641;SHT31;54434;50.096;20.082;2023-10-09T12:41:38;8.06;78.61
67641;SHT31;54434;50.096;20.082;2023-10-09T12:44:14;8.07;78.91
67641;SHT31;54434;50.096;20.082;2023-10-09T12:46:52;8.07;78.89
67641;SHT31;54434;50.096;20.082;2023-10-09T12:49:29;8.07;78.78
67641;SHT31;54434;50.096;20.082;2023-10-09T12:52:11;8.06;78.98
67641;SHT31;54434;50.096;20.082;2023-10-09T12:54:50;8.05;78.93
67641;SHT31;54434;50.096;20.082;2023-10-09T12:57:31;8.03;79.10
67641;SHT31;54434;50.096;20.082;2023-10-09T13:00:11;8.06;79.28
67641;SHT31;54434;50.096;20.082;2023-10-09T13:02:58;8.08;79.46
67641;SHT31;54434;50.096;20.082;2023-10-09T13:05:49;8.10;79.53
67641;SHT31;54434;50.096;20.082;2023-10-09T13:08:29;8.07;79.39
67641;SHT31;54434;50.096;20.082;2023-10-09T13:11:09;8.05;79.36
67641;SHT31;54434;50.096;20.082;2023-10-09T13:13:50;8.06;79.46
67641;SHT31;54434;50.096;20.082;2023-10-09T13:16:35;8.04;79.61
67641;SHT31;54434;50.096;20.082;2023-10-09T13:19:14;8.02;79.62
67641;SHT31;54434;50.096;20.082;2023-10-09T13:21:52;8.01;79.73
67641;SHT31;54434;50.096;20.082;2023-10-09T13:24:30;8.01;80.02
67641;SHT31;54434;50.096;20.082;2023-10-09T13:27:12;7.99;80.10
67641;SHT31;54434;50.096;20.082;2023-10-09T13:29:56;7.98;79.97
67641;SHT31;54434;50.096;20.082;2023-10-09T13:32:40;7.95;79.88
67641;SHT31;54434;50.096;20.082;2023-10-09T13:35:23;7.93;80.22
67641;SHT31;54434;50.096;20.082;2023-10-09T13:38:11;7.93;80.14
67641;SHT31;54434;50.096;20.082;2023-10-09T13:40:58;7.89;80.12
67641;SHT31;54434;50.096;20.082;2023-10-09T13:43:38;7.89;80.14
67641;SHT31;54434;50.096;20.082;2023-10-09T13:46:17;7.87;80.20
67641;SHT31;54434;50.096;20.082;2023-10-09T13:48:56;7.85;80.07
67641;SHT31;54434;50.096;20.082;2023-10-09T13:51:33;7.84;80.37
67641;SHT31;54434;50.096;20.082;2023-10-09T13:54:15;7.85;80.41
67641;SHT31;54434;50.096;20.082;2023-10-09T13:57:00;7.86;80.40
67641;SHT31;54434;50.096;20.082;2023-10-09T13:59:39;7.84;80.55
67641;SHT31;54434;50.096;20.082;2023-10-09T14:02:21;7.81;80.41
67641;SHT31;54434;50.096;20.082;2023-10-09T14:05:01;7.80;80.56
67641;SHT31;54434;50.096;20.082;2023-10-09T14:07:40;7.80;80.62
67641;SHT31;54434;50.096;20.082;2023-10-09T14:10:17;7.81;80.77
67641;SHT31;54434;50.096;20.082;2023-10-09T14:12:58;7.82;80.92
67641;SHT31;54434;50.096;20.082;2023-10-09T14:15:43;7.78;80.97
67641;SHT31;54434;50.096;20.082;2023-10-09T14:18:21;7.76;81.06
67641;SHT31;54434;50.096;20.082;2023-10-09T14:21:05;7.75;81.25
67641;SHT31;54434;50.096;20.082;2023-10-09T14:23:48;7.78;81.41
67641;SHT31;54434;50.096;20.082;2023-10-09T14:26:27;7.78;81.44
67641;SHT31;54434;50.096;20.082;2023-10-09T14:29:06;7.77;81.36
67641;SHT31;54434;50.096;20.082;2023-10-09T14:31:46;7.77;81.27
67641;SHT31;54434;50.096;20.082;2023-10-09T14:34:32;7.73;81.25
67641;SHT31;54434;50.096;20.082;2023-10-09T14:37:11;7.73;81.36
67641;SHT31;54434;50.096;20.082;2023-10-09T14:39:48;7.72;81.35
67641;SHT31;54434;50.096;20.082;2023-10-09T14:42:24;7.72;81.17
67641;SHT31;54434;50.096;20.082;2023-10-09T14:45:01;7.73;81.25
67641;SHT31;54434;50.096;20.082;2023-10-09T14:47:40;7.75;81.30
67641;SHT31;54434;50.096;20.082;2023-10-09T14:50:18;7.74;81.27
67641;SHT31;54434;50.096;20.082;2023-10-09T14:52:55;7.74;81.43
67641;SHT31;54434;50.096;20.082;2023-10-09T14:55:33;7.70;81.31
67641;SHT31;54434;50.096;20.082;2023-10-09T14:58:10;7.68;81.40
67641;SHT31;54434;50.096;20.082;2023-10-09T15:00:48;7.67;81.60
67641;SHT31;54434;50.096;20.082;2023-10-09T15:03:26;7.66;81.70
67641;SHT31;54434;50.096;20.082;2023-10-09T15:06:09;7.66;81.70
67641;SHT31;54434;50.096;20.082;2023-10-09T15:08:49;7.67;81.79
67641;SHT31;54434;50.096;20.082;2023-10-09T15:11:29;7.68;81.90
67641;SHT31;54434;50.096;20.082;2023-10-09T15:14:05;7.70;81.86
67641;SHT31;54434;50.096;20.082;2023-10-09T15:16:41;7.69;81.82
67641;SHT31;54434;50.096;20.082;2023-10-09T15:19:18;7.69;81.84
67641;SHT31;54434;50.096;20.082;2023-10-09T15:22:01;7.67;81.93
67641;SHT31;54434;50.096;20.082;2023-10-09T15:24:41;7.66;82.00
67641;SHT31;54434;50.096;20.082;2023-10-09T15:27:18;7.66;82.08
67641;SHT31;54434;50.096;20.082;2023-10-09T15:29:56;7.64;82.02
67641;SHT31;54434;50.096;20.082;2023-10-09T15:32:32;7.64;82.07
67641;SHT31;54434;50.096;20.082;2023-10-09T15:35:09;7.63;82.23
67641;SHT31;54434;50.096;20.082;2023-10-09T15:37:46;7.64;82.32
67641;SHT31;54434;50.096;20.082;2023-10-09T15:40:24;7.65;82.42
67641;SHT31;54434;50.096;20.082;2023-10-09T15:43:01;7.65;82.39
67641;SHT31;54434;50.096;20.082;2023-10-09T15:45:42;7.62;82.39
67641;SHT31;54434;50.096;20.082;2023-10-09T15:48:21;7.61;82.38
67641;SHT31;54434;50.096;20.082;2023-10-09T15:50:57;7.62;82.46
67641;SHT31;54434;50.096;20.082;2023-10-09T15:53:35;7.64;82.46
67641;SHT31;54434;50.096;20.082;2023-10-09T15:56:13;7.63;82.39
67641;SHT31;54434;50.096;20.082;2023-10-09T15:58:50;7.64;82.37
67641;SHT31;54434;50.096;20.082;2023-10-09T16:01:28;7.64;82.40
67641;SHT31;54434;50.096;20.082;2023-10-09T16:04:29;7.63;82.49
67641;SHT31;54434;50.096;20.082;2023-10-09T16:07:35;7.65;82.46
67641;SHT31;54434;50.096;20.082;2023-10-09T16:10:12;7.66;82.52
67641;SHT31;54434;50.096;20.082;2023-10-09T16:12:49;7.68;82.56
67641;SHT31;54434;50.096;20.082;2023-10-09T16:15:26;7.69;82.63
67641;SHT31;54434;50.096;20.082;2023-10-09T16:18:05;7.69;82.71
67641;SHT31;54434;50.096;20.082;2023-10-09T16:20:42;7.68;82.75
67641;SHT31;54434;50.096;20.082;2023-10-09T16:23:19;7.68;82.79
67641;SHT31;54434;50.096;20.082;2023-10-09T16:25:56;7.68;82.88
67641;SHT31;54434;50.096;20.082;2023-10-09T16:28:33;7.71;83.00
67641;SHT31;54434;50.096;20.082;2023-10-09T16:31:11;7.74;82.97
67641;SHT31;54434;50.096;20.082;2023-10-09T16:33:51;7.73;83.06
67641;SHT31;54434;50.096;20.082;2023-10-09T16:36:27;7.71;83.04
67641;SHT31;54434;50.096;20.082;2023-10-09T16:39:04;7.70;82.99
67641;SHT31;54434;50.096;20.082;2023-10-09T16:41:50;7.72;82.84
67641;SHT31;54434;50.096;20.082;2023-10-09T16:44:29;7.74;82.82
67641;SHT31;54434;50.096;20.082;2023-10-09T16:47:08;7.76;82.90
67641;SHT31;54434;50.096;20.082;2023-10-09T16:49:45;7.78;82.92
67641;SHT31;54434;50.096;20.082;2023-10-09T16:52:23;7.80;82.85
67641;SHT31;54434;50.096;20.082;2023-10-09T16:55:02;7.80;82.89
67641;SHT31;54434;50.096;20.082;2023-10-09T16:57:41;7.81;82.90
67641;SHT31;54434;50.096;20.082;2023-10-09T17:00:20;7.81;82.91
67641;SHT31;54434;50.096;20.082;2023-10-09T17:03:02;7.82;82.95
67641;SHT31;54434;50.096;20.082;2023-10-09T17:05:40;7.83;82.90
67641;SHT31;54434;50.096;20.082;2023-10-09T17:08:27;7.82;82.90